Time;durP1;ratioP1;P1;durP2;ratioP2;P2;SDS_P1;SDS_P2;PMS_P1;PMS_P2;Temp;Humidity;BMP_temperature;BMP_pressure;BME280_temperature;BME280_humidity;BME280_pressure;Samples;Min_cycle;Max_cycle;Signal;HPM_P1;HPM_P2
2023/06/08 00:01:44;;;;;;;;;;;;;;;20.83;65.89;99795.75;5305888;26;31735;-86
2023/06/08 00:04:12;;;;;;;;;;;;;;;20.86;65.80;99795.50;5307053;26;32845;-87
2023/06/08 00:06:41;;;;;;;;;;;;;;;20.83;65.55;99779.66;5325737;26;33974;-87
2023/06/08 00:09:09;;;;;;;;;;;;;;;20.86;65.40;99776.72;5308071;26;33071;-88
2023/06/08 00:11:37;;;;;;;;;;;;;;;20.87;64.71;99783.78;5307344;26;31983;-88
2023/06/08 00:14:04;;;;;;;;;;;;;;;20.79;64.95;99778.22;5307397;26;34360;-88
2023/06/08 00:16:33;;;;;;;;;;;;;;;20.61;65.39;99775.31;5325274;26;34136;-88
2023/06/08 00:19:01;;;;;;;;;;;;;;;20.57;65.81;99773.88;5325756;26;34025;-88
2023/06/08 00:21:29;;;;;;;;;;;;;;;20.60;65.59;99773.59;5342869;26;33153;-88
2023/06/08 00:23:56;;;;;;;;;;;;;;;20.57;65.71;99774.72;5324375;26;33101;-88
2023/06/08 00:26:26;;;;;;;;;;;;;;;20.54;65.45;99772.28;5325019;26;34359;-88
2023/06/08 00:28:53;;;;;;;;;;;;;;;20.45;65.82;99771.19;5325269;26;33662;-87
2023/06/08 00:31:20;;;;;;;;;;;;;;;20.59;65.17;99761.16;5324989;26;32356;-87
2023/06/08 00:33:48;;;;;;;;;;;;;;;20.54;65.14;99764.25;5325470;26;32967;-87
2023/06/08 00:36:17;;;;;;;;;;;;;;;20.46;65.63;99766.69;5343926;26;34315;-87
2023/06/08 00:38:44;;;;;;;;;;;;;;;20.50;65.46;99762.78;5325163;26;34305;-87
2023/06/08 00:41:12;;;;;;;;;;;;;;;20.41;65.49;99763.53;5325426;26;33099;-87
2023/06/08 00:43:42;;;;;;;;;;;;;;;20.40;65.82;99773.44;5325334;26;34681;-87
2023/06/08 00:46:10;;;;;;;;;;;;;;;20.33;65.97;99763.38;5306990;26;33696;-86
2023/06/08 00:48:38;;;;;;;;;;;;;;;20.56;64.76;99758.75;5307239;26;32755;-87
2023/06/08 00:51:06;;;;;;;;;;;;;;;20.45;65.24;99770.34;5343716;26;33760;-86
2023/06/08 00:53:33;;;;;;;;;;;;;;;20.48;65.18;99770.13;5307070;26;33071;-86
2023/06/08 00:56:01;;;;;;;;;;;;;;;20.51;65.28;99771.69;5325498;26;34387;-87
2023/06/08 00:58:28;;;;;;;;;;;;;;;20.42;65.47;99768.81;5306843;26;34281;-87
2023/06/08 01:00:59;;;;;;;;;;;;;;;20.40;65.45;99777.94;5325264;26;33513;-88
2023/06/08 01:03:38;;;;;;;;;;;;;;;20.28;66.03;99771.81;5307272;26;32978;-88
2023/06/08 01:06:08;;;;;;;;;;;;;;;20.35;66.00;99775.66;5326425;26;34654;-88
2023/06/08 01:08:39;;;;;;;;;;;;;;;20.38;65.94;99782.59;5325683;26;33958;-88
2023/06/08 01:11:26;;;;;;;;;;;;;;;20.35;66.23;99772.97;5324811;26;33177;-88
2023/06/08 01:14:14;;;;;;;;;;;;;;;20.51;65.68;99777.94;5344272;26;34151;-87
2023/06/08 01:16:44;;;;;;;;;;;;;;;20.49;65.91;99777.19;5324610;26;33076;-87
2023/06/08 01:19:12;;;;;;;;;;;;;;;20.57;65.47;99784.59;5324985;26;34962;-86
2023/06/08 01:21:40;;;;;;;;;;;;;;;20.30;66.66;99777.03;5343037;26;32846;-87
2023/06/08 01:24:15;;;;;;;;;;;;;;;20.43;66.31;99789.28;5343805;26;33309;-86
2023/06/08 01:26:43;;;;;;;;;;;;;;;20.44;66.61;99784.75;5325247;26;33282;-87
2023/06/08 01:29:11;;;;;;;;;;;;;;;20.68;65.33;99777.31;5343419;26;34770;-86
2023/06/08 01:31:38;;;;;;;;;;;;;;;20.53;65.87;99784.00;5324451;26;32395;-87
2023/06/08 01:34:06;;;;;;;;;;;;;;;20.40;66.84;99778.78;5307191;26;33566;-87
2023/06/08 01:36:43;;;;;;;;;;;;;;;20.68;65.74;99776.47;5343674;26;34317;-88
2023/06/08 01:39:18;;;;;;;;;;;;;;;20.51;66.31;99780.63;5325734;26;33528;-89
2023/06/08 01:41:46;;;;;;;;;;;;;;;20.55;66.61;99773.97;5325191;26;33021;-89
2023/06/08 01:44:15;;;;;;;;;;;;;;;20.49;66.89;99776.34;5325424;26;34290;-88
2023/06/08 01:46:42;;;;;;;;;;;;;;;20.53;66.62;99778.63;5307356;26;33083;-89
2023/06/08 01:49:10;;;;;;;;;;;;;;;20.39;67.41;99778.94;5307244;26;33327;-88
2023/06/08 01:51:38;;;;;;;;;;;;;;;20.57;67.16;99779.22;5306779;26;33011;-88
2023/06/08 01:54:08;;;;;;;;;;;;;;;20.57;67.10;99788.13;5306372;26;34448;-89
2023/06/08 01:56:35;;;;;;;;;;;;;;;20.59;67.06;99777.25;5307519;26;33063;-88
2023/06/08 01:59:03;;;;;;;;;;;;;;;20.56;67.33;99778.38;5306898;26;33351;-88
2023/06/08 02:01:30;;;;;;;;;;;;;;;20.64;66.83;99770.50;5306950;26;33583;-87
2023/06/08 02:03:58;;;;;;;;;;;;;;;20.59;67.12;99770.06;5325348;26;33998;-88
2023/06/08 02:06:25;;;;;;;;;;;;;;;20.62;67.07;99767.13;5342887;26;34156;-88
2023/06/08 02:08:53;;;;;;;;;;;;;;;20.62;67.09;99767.13;5325448;26;33833;-88
2023/06/08 02:11:22;;;;;;;;;;;;;;;20.62;67.09;99777.84;5307061;26;32825;-88
2023/06/08 02:13:49;;;;;;;;;;;;;;;20.60;67.22;99774.44;5325443;26;34198;-88
2023/06/08 02:16:20;;;;;;;;;;;;;;;20.46;67.85;99766.69;5306690;26;33164;-88
2023/06/08 02:18:50;;;;;;;;;;;;;;;20.58;67.39;99773.72;5307572;26;34018;-88
2023/06/08 02:21:18;;;;;;;;;;;;;;;20.62;67.32;99760.91;5307458;26;32812;-88
2023/06/08 02:23:45;;;;;;;;;;;;;;;20.72;66.98;99761.81;5306849;26;33710;-88
2023/06/08 02:26:13;;;;;;;;;;;;;;;20.74;67.03;99765.19;5343409;26;34822;-89
2023/06/08 02:28:41;;;;;;;;;;;;;;;20.62;67.05;99761.75;5324661;26;33129;-89
2023/06/08 02:31:08;;;;;;;;;;;;;;;20.70;67.06;99766.47;5325135;26;33035;-87
2023/06/08 02:33:37;;;;;;;;;;;;;;;20.76;66.83;99768.62;5325032;26;34172;-87
2023/06/08 02:36:09;;;;;;;;;;;;;;;20.89;66.39;99768.41;5343964;26;33960;-88
2023/06/08 02:38:37;;;;;;;;;;;;;;;20.81;66.55;99760.16;5326196;26;33953;-87
2023/06/08 02:41:06;;;;;;;;;;;;;;;20.88;66.50;99761.31;5325652;26;33019;-87
2023/06/08 02:43:35;;;;;;;;;;;;;;;20.85;66.86;99756.25;5325553;26;34494;-88
2023/06/08 02:46:03;;;;;;;;;;;;;;;20.90;66.73;99759.38;5325514;26;34260;-88
2023/06/08 02:48:31;;;;;;;;;;;;;;;20.99;66.11;99753.19;5324769;26;34274;-88
2023/06/08 02:50:58;;;;;;;;;;;;;;;20.90;66.70;99754.00;5324603;26;34043;-87
2023/06/08 02:53:26;;;;;;;;;;;;;;;20.76;67.26;99751.66;5324819;26;33524;-87
2023/06/08 02:55:54;;;;;;;;;;;;;;;20.85;67.19;99753.56;5324492;26;33936;-87
2023/06/08 02:58:23;;;;;;;;;;;;;;;21.15;65.64;99756.22;5324870;26;34832;-86
2023/06/08 03:00:54;;;;;;;;;;;;;;;21.18;65.33;99750.59;5306853;26;32210;-89
2023/06/08 03:03:42;;;;;;;;;;;;;;;21.15;65.60;99744.63;5328283;26;34160;-88
2023/06/08 03:06:12;;;;;;;;;;;;;;;21.06;65.90;99748.97;5325089;26;34106;-86
2023/06/08 03:08:40;;;;;;;;;;;;;;;21.09;66.06;99756.78;5324895;26;33082;-86
2023/06/08 03:11:07;;;;;;;;;;;;;;;21.12;65.85;99753.78;5343868;26;33457;-86
2023/06/08 03:13:35;;;;;;;;;;;;;;;21.17;65.69;99756.06;5325106;26;34400;-85
2023/06/08 03:16:03;;;;;;;;;;;;;;;21.17;65.70;99754.28;5324671;26;35044;-85
2023/06/08 03:18:30;;;;;;;;;;;;;;;21.06;65.95;99765.09;5343313;26;34807;-86
2023/06/08 03:20:58;;;;;;;;;;;;;;;20.78;66.83;99763.09;5323745;26;32702;-87
2023/06/08 03:23:28;;;;;;;;;;;;;;;20.83;67.11;99767.09;5323709;26;32954;-87
2023/06/08 03:25:58;;;;;;;;;;;;;;;20.83;67.40;99766.25;5306131;26;34219;-87
2023/06/08 03:28:26;;;;;;;;;;;;;;;20.67;67.93;99762.22;5323910;26;33224;-87
2023/06/08 03:30:54;;;;;;;;;;;;;;;20.74;67.92;99762.50;5324525;26;33592;-87
2023/06/08 03:33:22;;;;;;;;;;;;;;;20.89;67.22;99763.03;5306018;26;34401;-87
2023/06/08 03:35:50;;;;;;;;;;;;;;;20.79;67.67;99762.13;5343140;26;33785;-87
2023/06/08 03:38:18;;;;;;;;;;;;;;;20.75;67.98;99766.03;5324963;26;32507;-87
2023/06/08 03:40:46;;;;;;;;;;;;;;;20.78;67.89;99760.44;5307157;26;32848;-87
2023/06/08 03:43:14;;;;;;;;;;;;;;;20.84;67.86;99766.13;5344252;26;34318;-87
2023/06/08 03:45:41;;;;;;;;;;;;;;;20.92;67.76;99763.59;5326135;26;35059;-88
2023/06/08 03:48:09;;;;;;;;;;;;;;;20.89;67.86;99769.25;5325673;26;32539;-88
2023/06/08 03:50:37;;;;;;;;;;;;;;;20.88;68.17;99772.06;5307600;26;32196;-88
2023/06/08 03:53:05;;;;;;;;;;;;;;;20.85;68.14;99766.97;5325719;26;33070;-88
2023/06/08 03:55:33;;;;;;;;;;;;;;;20.94;68.02;99769.72;5307332;26;33513;-88
2023/06/08 03:58:00;;;;;;;;;;;;;;;21.22;66.89;99767.25;5306993;26;33786;-88
2023/06/08 04:00:29;;;;;;;;;;;;;;;21.21;66.85;99769.09;5307598;26;33046;-88
2023/06/08 04:02:57;;;;;;;;;;;;;;;21.25;66.87;99771.53;5308288;26;33804;-88
2023/06/08 04:05:25;;;;;;;;;;;;;;;21.35;66.41;99764.37;5325518;26;33769;-88
2023/06/08 04:07:52;;;;;;;;;;;;;;;21.22;66.94;99764.56;5307019;26;33044;-88
2023/06/08 04:10:20;;;;;;;;;;;;;;;21.13;67.57;99762.72;5305889;26;32038;-87
2023/06/08 04:12:48;;;;;;;;;;;;;;;21.39;66.70;99761.28;5306068;26;34244;-87
2023/06/08 04:15:15;;;;;;;;;;;;;;;21.46;66.37;99764.28;5324423;26;32995;-87
2023/06/08 04:17:46;;;;;;;;;;;;;;;21.43;66.72;99760.03;5306351;26;33956;-87
2023/06/08 04:20:15;;;;;;;;;;;;;;;21.53;66.41;99765.41;5325081;26;32185;-87
2023/06/08 04:22:43;;;;;;;;;;;;;;;21.36;67.02;99758.84;5324458;26;35043;-87
2023/06/08 04:25:11;;;;;;;;;;;;;;;21.32;67.41;99768.19;5343430;26;33536;-87
2023/06/08 04:27:39;;;;;;;;;;;;;;;21.45;67.17;99763.41;5324139;26;34619;-86
2023/06/08 04:30:07;;;;;;;;;;;;;;;21.34;67.76;99768.06;5342400;26;32726;-86
2023/06/08 04:32:34;;;;;;;;;;;;;;;21.39;67.65;99766.66;5305898;26;33135;-87
2023/06/08 04:35:03;;;;;;;;;;;;;;;21.46;67.54;99761.59;5343291;26;33878;-86
2023/06/08 04:37:32;;;;;;;;;;;;;;;21.59;67.17;99766.69;5343284;26;34264;-86
2023/06/08 04:40:01;;;;;;;;;;;;;;;21.57;67.26;99768.69;5324858;26;32783;-87
2023/06/08 04:42:29;;;;;;;;;;;;;;;21.73;66.75;99769.84;5326302;26;34586;-87
2023/06/08 04:44:59;;;;;;;;;;;;;;;21.58;67.08;99767.69;5325114;26;34647;-87
2023/06/08 04:47:31;;;;;;;;;;;;;;;21.78;66.04;99768.56;5307347;26;33199;-87
2023/06/08 04:50:00;;;;;;;;;;;;;;;21.53;67.09;99773.47;5326084;26;33227;-86
2023/06/08 04:52:30;;;;;;;;;;;;;;;21.56;67.37;99783.97;5325914;26;34048;-86
2023/06/08 04:55:01;;;;;;;;;;;;;;;21.62;67.39;99778.03;5325407;26;34230;-86
2023/06/08 04:57:29;;;;;;;;;;;;;;;21.81;66.77;99771.84;5307689;26;33414;-87
2023/06/08 04:59:57;;;;;;;;;;;;;;;21.88;66.67;99774.81;5343958;26;33338;-86
2023/06/08 05:02:25;;;;;;;;;;;;;;;21.79;66.15;99781.00;5343740;26;34668;-88
2023/06/08 05:04:53;;;;;;;;;;;;;;;21.83;66.53;99783.28;5343123;26;34289;-86
2023/06/08 05:07:20;;;;;;;;;;;;;;;21.97;66.26;99774.81;5324910;26;34637;-87
2023/06/08 05:09:48;;;;;;;;;;;;;;;22.29;65.42;99781.78;5324908;26;33065;-87
2023/06/08 05:12:15;;;;;;;;;;;;;;;22.33;65.44;99790.44;5325050;26;33362;-87
2023/06/08 05:14:43;;;;;;;;;;;;;;;22.34;65.50;99779.53;5306019;26;33121;-87
2023/06/08 05:17:10;;;;;;;;;;;;;;;22.22;65.98;99786.06;5344030;26;34899;-86
2023/06/08 05:19:37;;;;;;;;;;;;;;;22.05;65.89;99784.03;5323005;26;34427;-87
2023/06/08 05:22:05;;;;;;;;;;;;;;;21.96;65.68;99777.66;5323262;26;32935;-87
2023/06/08 05:24:33;;;;;;;;;;;;;;;22.14;65.16;99785.91;5339456;26;34933;-87
2023/06/08 05:27:00;;;;;;;;;;;;;;;22.04;65.51;99782.34;5324278;26;33973;-87
2023/06/08 05:29:28;;;;;;;;;;;;;;;22.26;64.98;99781.22;5304099;26;32830;-86
2023/06/08 05:31:55;;;;;;;;;;;;;;;22.52;64.28;99787.72;5322248;26;33121;-86
2023/06/08 05:34:23;;;;;;;;;;;;;;;22.58;63.78;99781.75;5341961;26;33809;-86
2023/06/08 05:36:53;;;;;;;;;;;;;;;22.54;63.97;99790.25;5322429;26;34652;-88
2023/06/08 05:39:21;;;;;;;;;;;;;;;22.51;63.81;99786.03;5322030;26;32328;-87
2023/06/08 05:41:48;;;;;;;;;;;;;;;22.36;64.36;99787.44;5303494;26;33934;-87
2023/06/08 05:44:16;;;;;;;;;;;;;;;22.44;64.32;99791.12;5319217;26;33134;-87
2023/06/08 05:46:43;;;;;;;;;;;;;;;22.58;64.02;99781.75;5338512;26;33582;-87
2023/06/08 05:49:11;;;;;;;;;;;;;;;22.63;64.32;99786.72;5338939;26;33469;-88
2023/06/08 05:51:39;;;;;;;;;;;;;;;22.62;64.47;99787.72;5340888;26;34200;-87
2023/06/08 05:54:06;;;;;;;;;;;;;;;22.52;65.26;99786.88;5320107;26;32988;-87
2023/06/08 05:56:34;;;;;;;;;;;;;;;22.58;65.01;99795.22;5339262;26;33897;-87
2023/06/08 05:59:01;;;;;;;;;;;;;;;22.87;63.34;99781.69;5338783;26;33509;-87
2023/06/08 06:01:29;;;;;;;;;;;;;;;22.83;63.38;99784.81;5320134;26;32668;-86
2023/06/08 06:03:56;;;;;;;;;;;;;;;22.54;64.32;99780.34;5320528;26;34010;-85
2023/06/08 06:06:24;;;;;;;;;;;;;;;22.54;64.29;99788.41;5301442;26;32670;-86
2023/06/08 06:08:52;;;;;;;;;;;;;;;22.43;64.61;99783.19;5319762;26;33497;-86
2023/06/08 06:11:20;;;;;;;;;;;;;;;22.73;63.88;99780.31;5302680;26;32950;-85
2023/06/08 06:13:47;;;;;;;;;;;;;;;22.96;62.86;99778.16;5339554;26;33954;-85
2023/06/08 06:16:15;;;;;;;;;;;;;;;22.98;62.31;99783.41;5339034;26;33535;-85
2023/06/08 06:18:46;;;;;;;;;;;;;;;22.67;63.29;99786.28;5337898;26;33848;-85
2023/06/08 06:21:14;;;;;;;;;;;;;;;22.71;63.65;99787.69;5320231;26;34191;-86
2023/06/08 06:23:41;;;;;;;;;;;;;;;22.93;63.40;99781.16;5337792;26;33910;-86
2023/06/08 06:26:10;;;;;;;;;;;;;;;22.82;63.89;99783.97;5318810;26;33985;-86
2023/06/08 06:28:38;;;;;;;;;;;;;;;22.84;63.51;99781.16;5339271;26;33210;-86
2023/06/08 06:31:05;;;;;;;;;;;;;;;23.04;63.31;99780.13;5320482;26;33695;-86
2023/06/08 06:33:33;;;;;;;;;;;;;;;23.12;62.25;99777.53;5320376;26;34535;-85
2023/06/08 06:36:00;;;;;;;;;;;;;;;23.34;61.92;99780.84;5320500;26;32712;-85
2023/06/08 06:38:28;;;;;;;;;;;;;;;23.29;62.36;99775.06;5339569;26;33949;-84
2023/06/08 06:40:56;;;;;;;;;;;;;;;23.17;62.12;99772.56;5319793;26;33515;-84
2023/06/08 06:43:24;;;;;;;;;;;;;;;23.19;62.35;99775.94;5338965;26;34306;-84
2023/06/08 06:45:52;;;;;;;;;;;;;;;23.03;63.26;99769.50;5283384;26;34134;-85
2023/06/08 06:48:21;;;;;;;;;;;;;;;23.33;62.47;99771.06;5338213;26;34085;-84
2023/06/08 06:50:51;;;;;;;;;;;;;;;23.45;60.72;99777.94;5319821;26;34719;-87
2023/06/08 06:53:19;;;;;;;;;;;;;;;23.23;62.22;99774.66;5318534;26;33574;-85
2023/06/08 06:55:47;;;;;;;;;;;;;;;23.30;62.23;99776.75;5320047;26;33095;-85
2023/06/08 06:58:15;;;;;;;;;;;;;;;23.00;63.38;99782.25;5319761;26;33250;-84
2023/06/08 07:00:43;;;;;;;;;;;;;;;23.24;62.58;99780.87;5320323;26;33676;-84
2023/06/08 07:03:11;;;;;;;;;;;;;;;22.81;63.50;99787.66;5337713;26;33492;-84
2023/06/08 07:05:39;;;;;;;;;;;;;;;22.84;63.60;99781.16;5339964;26;33807;-84
2023/06/08 07:08:06;;;;;;;;;;;;;;;23.17;63.16;99774.41;5318993;26;33502;-83
2023/06/08 07:10:34;;;;;;;;;;;;;;;23.21;62.63;99782.00;5302872;26;32741;-82
2023/06/08 07:13:01;;;;;;;;;;;;;;;23.15;62.69;99784.47;5342521;26;34758;-81
2023/06/08 07:15:29;;;;;;;;;;;;;;;23.20;62.99;99776.78;5323679;26;33187;-81
2023/06/08 07:17:56;;;;;;;;;;;;;;;22.56;64.62;99782.91;5344043;26;33661;-81
2023/06/08 07:20:23;;;;;;;;;;;;;;;22.80;64.72;99780.59;5306294;26;32806;-81
2023/06/08 07:22:51;;;;;;;;;;;;;;;22.84;64.22;99781.16;5342718;26;35027;-81
2023/06/08 07:25:39;;;;;;;;;;;;;;;22.47;64.79;99782.78;5342610;26;32658;-81
2023/06/08 07:28:26;;;;;;;;;;;;;;;23.03;63.73;99785.66;5328192;26;34130;-81
2023/06/08 07:30:54;;;;;;;;;;;;;;;22.94;64.45;99780.16;5342177;26;33644;-81
2023/06/08 07:33:21;;;;;;;;;;;;;;;23.23;64.21;99781.88;5342536;26;33961;-81
2023/06/08 07:35:49;;;;;;;;;;;;;;;23.49;62.36;99771.25;5342819;26;33594;-81
2023/06/08 07:38:16;;;;;;;;;;;;;;;23.27;62.44;99777.91;5324183;26;34033;-82
2023/06/08 07:40:43;;;;;;;;;;;;;;;23.00;63.12;99776.03;5342904;26;34134;-81
2023/06/08 07:43:11;;;;;;;;;;;;;;;23.29;62.95;99775.06;5343248;26;34356;-82
2023/06/08 07:45:38;;;;;;;;;;;;;;;23.51;62.38;99780.91;5324310;26;33931;-81
2023/06/08 07:48:06;;;;;;;;;;;;;;;23.36;63.31;99784.22;5324643;26;33471;-82
2023/06/08 07:50:34;;;;;;;;;;;;;;;24.06;60.07;99774.59;5324314;26;32756;-81
2023/06/08 07:53:02;;;;;;;;;;;;;;;23.71;62.05;99781.66;5324527;26;32800;-82
2023/06/08 07:55:29;;;;;;;;;;;;;;;23.33;61.87;99780.00;5324671;26;34173;-81
2023/06/08 07:57:56;;;;;;;;;;;;;;;23.49;61.79;99779.34;5344005;26;32899;-82
2023/06/08 08:00:25;;;;;;;;;;;;;;;23.67;61.77;99774.88;5342993;26;33547;-81
2023/06/08 08:02:53;;;;;;;;;;;;;;;23.68;61.15;99773.84;5324843;26;34040;-82
2023/06/08 08:05:21;;;;;;;;;;;;;;;23.58;62.54;99780.28;5324151;26;33977;-81
2023/06/08 08:07:48;;;;;;;;;;;;;;;23.67;62.12;99779.41;5344270;26;33538;-82
2023/06/08 08:10:16;;;;;;;;;;;;;;;23.68;61.39;99771.16;5306287;26;32821;-82
2023/06/08 08:12:43;;;;;;;;;;;;;;;23.68;62.15;99771.16;5342770;26;33888;-81
2023/06/08 08:15:10;;;;;;;;;;;;;;;24.20;60.04;99771.34;5343748;26;33660;-82
2023/06/08 08:17:38;;;;;;;;;;;;;;;23.77;62.56;99767.56;5324007;26;33818;-82
2023/06/08 08:20:06;;;;;;;;;;;;;;;24.23;60.90;99762.09;5324426;26;34237;-82
2023/06/08 08:22:36;;;;;;;;;;;;;;;23.97;60.12;99765.56;5324357;26;34280;-84
2023/06/08 08:25:04;;;;;;;;;;;;;;;24.13;61.39;99769.44;5341827;26;33686;-87
2023/06/08 08:27:32;;;;;;;;;;;;;;;24.35;60.14;99768.09;5322707;26;34034;-83
2023/06/08 08:29:59;;;;;;;;;;;;;;;24.52;59.49;99770.81;5303039;26;33474;-83
2023/06/08 08:32:27;;;;;;;;;;;;;;;24.57;58.75;99767.63;5321577;26;33120;-83
2023/06/08 08:34:54;;;;;;;;;;;;;;;24.15;60.98;99767.41;5303476;26;32691;-83
2023/06/08 08:37:22;;;;;;;;;;;;;;;24.43;59.71;99760.94;5340471;26;33427;-83
2023/06/08 08:39:50;;;;;;;;;;;;;;;24.93;57.02;99752.19;5339640;26;33000;-83
2023/06/08 08:42:24;;;;;;;;;;;;;;;24.91;58.21;99758.72;5302859;26;34361;-83
2023/06/08 08:44:53;;;;;;;;;;;;;;;24.96;58.67;99756.41;5321089;26;32908;-83
2023/06/08 08:47:22;;;;;;;;;;;;;;;25.32;57.72;99753.56;5339591;26;33732;-83
2023/06/08 08:49:55;;;;;;;;;;;;;;;25.60;56.06;99759.59;5339913;26;33216;-83
2023/06/08 08:52:23;;;;;;;;;;;;;;;25.85;55.76;99758.66;5321769;26;33738;-83
2023/06/08 08:54:55;;;;;;;;;;;;;;;25.38;56.30;99766.44;5340420;26;34474;-83
2023/06/08 08:57:25;;;;;;;;;;;;;;;25.31;56.39;99766.25;5322318;26;34231;-83
2023/06/08 08:59:52;;;;;;;;;;;;;;;25.52;55.96;99761.25;5303273;26;32431;-83
2023/06/08 09:02:20;;;;;;;;;;;;;;;25.48;55.88;99756.31;5340057;26;35233;-83
2023/06/08 09:04:47;;;;;;;;;;;;;;;25.44;56.72;99754.97;5339873;26;33985;-83
2023/06/08 09:07:21;;;;;;;;;;;;;;;25.98;54.43;99752.78;5341510;26;33162;-83
2023/06/08 09:10:08;;;;;;;;;;;;;;;25.71;56.19;99754.72;5322174;26;33711;-83
2023/06/08 09:12:41;;;;;;;;;;;;;;;25.44;56.43;99753.09;5341854;26;34622;-83
2023/06/08 09:15:11;;;;;;;;;;;;;;;25.18;55.79;99746.94;5321475;26;32697;-83
2023/06/08 09:17:40;;;;;;;;;;;;;;;25.46;55.31;99742.97;5303522;26;32138;-83
2023/06/08 09:20:08;;;;;;;;;;;;;;;25.46;55.49;99750.25;5321771;26;35122;-83
2023/06/08 09:22:36;;;;;;;;;;;;;;;25.54;55.32;99747.56;5339857;26;34311;-83
2023/06/08 09:25:04;;;;;;;;;;;;;;;25.12;55.93;99745.72;5320561;26;33394;-83
2023/06/08 09:27:31;;;;;;;;;;;;;;;25.07;55.99;99737.25;5321258;26;33004;-83
2023/06/08 09:30:00;;;;;;;;;;;;;;;25.38;55.93;99734.00;5340466;26;33795;-83
2023/06/08 09:32:34;;;;;;;;;;;;;;;25.02;57.54;99729.59;5321732;26;33522;-83
2023/06/08 09:35:02;;;;;;;;;;;;;;;25.62;55.10;99735.94;5303010;26;32932;-83
2023/06/08 09:37:32;;;;;;;;;;;;;;;25.34;55.63;99732.63;5339610;26;32984;-83
2023/06/08 09:40:01;;;;;;;;;;;;;;;25.27;55.75;99727.03;5322602;26;33925;-83
2023/06/08 09:42:41;;;;;;;;;;;;;;;24.94;56.97;99731.41;5321761;26;33463;-83
2023/06/08 09:45:11;;;;;;;;;;;;;;;24.98;57.07;99725.53;5341623;26;34082;-83
2023/06/08 09:47:38;;;;;;;;;;;;;;;25.54;55.79;99723.22;5322127;26;32793;-83
2023/06/08 09:50:07;;;;;;;;;;;;;;;25.65;54.98;99719.37;5321629;26;32910;-83
2023/06/08 09:52:38;;;;;;;;;;;;;;;25.17;56.43;99721.78;5320477;26;32810;-83
2023/06/08 09:55:06;;;;;;;;;;;;;;;25.57;55.62;99728.31;5321367;26;34541;-83
2023/06/08 09:57:35;;;;;;;;;;;;;;;25.84;55.43;99723.66;5340201;26;33446;-83
2023/06/08 10:00:14;;;;;;;;;;;;;;;25.97;54.87;99727.56;5322177;26;32940;-82
2023/06/08 10:02:53;;;;;;;;;;;;;;;26.02;54.56;99721.66;5321488;26;33109;-82
2023/06/08 10:05:22;;;;;;;;;;;;;;;25.92;54.28;99718.25;5321278;26;33339;-81
2023/06/08 10:07:51;;;;;;;;;;;;;;;25.72;55.34;99709.56;5321591;26;32581;-81
2023/06/08 10:10:22;;;;;;;;;;;;;;;25.83;54.73;99708.44;5340834;26;34615;-81
2023/06/08 10:12:50;;;;;;;;;;;;;;;25.83;53.95;99708.44;5339400;26;33479;-81
2023/06/08 10:15:18;;;;;;;;;;;;;;;25.54;54.41;99701.59;5320952;26;34300;-81
2023/06/08 10:17:45;;;;;;;;;;;;;;;25.81;54.33;99699.66;5339130;26;33097;-81
2023/06/08 10:20:16;;;;;;;;;;;;;;;26.10;54.12;99696.44;5321064;26;33507;-81
2023/06/08 10:22:43;;;;;;;;;;;;;;;25.83;53.47;99684.97;5321178;26;33209;-81
2023/06/08 10:25:13;;;;;;;;;;;;;;;26.36;54.12;99682.75;5321251;26;33198;-81
2023/06/08 10:27:51;;;;;;;;;;;;;;;26.25;53.23;99690.22;5339825;26;33392;-81
2023/06/08 10:30:46;;;;;;;;;;;;;;;26.32;52.78;99690.34;5303079;26;32145;-81
2023/06/08 10:33:19;;;;;;;;;;;;;;;26.10;54.18;99691.88;5337632;26;33806;-81
2023/06/08 10:36:06;;;;;;;;;;;;;;;26.00;53.66;99692.06;5322159;26;34011;-81
2023/06/08 10:39:00;;;;;;;;;;;;;;;26.57;53.08;99683.06;5339316;26;32826;-81
2023/06/08 10:41:41;;;;;;;;;;;;;;;26.42;53.47;99673.94;5315479;26;32747;-81
2023/06/08 10:44:24;;;;;;;;;;;;;;;26.13;53.88;99675.31;5320014;26;33535;-81
2023/06/08 10:46:59;;;;;;;;;;;;;;;25.91;54.86;99670.56;5339046;26;32796;-81
2023/06/08 10:49:28;;;;;;;;;;;;;;;25.92;54.24;99670.44;5339341;26;33564;-81
2023/06/08 10:51:56;;;;;;;;;;;;;;;26.21;54.48;99669.06;5340992;26;33939;-81
2023/06/08 10:54:23;;;;;;;;;;;;;;;26.66;54.34;99664.94;5321269;26;33745;-81
2023/06/08 10:56:52;;;;;;;;;;;;;;;26.60;54.66;99661.06;5339899;26;33811;-81
2023/06/08 10:59:39;;;;;;;;;;;;;;;26.55;54.48;99658.03;5324449;26;33130;-80
2023/06/08 11:02:07;;;;;;;;;;;;;;;26.37;54.41;99660.06;5339113;26;34264;-81
2023/06/08 11:04:35;;;;;;;;;;;;;;;25.58;55.73;99654.28;5320572;26;33935;-81
2023/06/08 11:07:12;;;;;;;;;;;;;;;25.70;54.67;99661.06;5305058;26;32530;-81
2023/06/08 11:09:46;;;;;;;;;;;;;;;25.98;54.51;99660.78;5321987;26;33788;-81
2023/06/08 11:12:14;;;;;;;;;;;;;;;26.09;54.31;99663.13;5319022;26;33800;-81
2023/06/08 11:14:42;;;;;;;;;;;;;;;26.08;54.76;99664.16;5321089;26;34303;-81
2023/06/08 11:17:09;;;;;;;;;;;;;;;26.46;54.84;99659.06;5320173;26;32569;-82
2023/06/08 11:19:36;;;;;;;;;;;;;;;26.49;53.04;99650.56;5338950;26;33817;-81
2023/06/08 11:22:04;;;;;;;;;;;;;;;26.87;52.81;99648.09;5340330;26;33720;-81
2023/06/08 11:24:31;;;;;;;;;;;;;;;26.36;54.28;99652.97;5320629;26;33900;-81
2023/06/08 11:27:01;;;;;;;;;;;;;;;25.70;54.11;99652.13;5337563;26;34122;-81
2023/06/08 11:29:32;;;;;;;;;;;;;;;25.96;54.77;99651.97;5321773;26;31983;-81
2023/06/08 11:32:10;;;;;;;;;;;;;;;26.36;53.47;99647.56;5320703;26;34814;-81
2023/06/08 11:34:38;;;;;;;;;;;;;;;25.69;54.35;99653.97;5320585;26;34653;-81
2023/06/08 11:37:05;;;;;;;;;;;;;;;26.19;53.26;99657.53;5302377;26;32944;-81
2023/06/08 11:39:33;;;;;;;;;;;;;;;26.59;52.93;99648.53;5320570;26;33688;-81
2023/06/08 11:42:01;;;;;;;;;;;;;;;26.29;50.68;99652.78;5338036;26;33912;-81
2023/06/08 11:44:30;;;;;;;;;;;;;;;26.53;51.38;99643.81;5337671;26;33920;-81
2023/06/08 11:46:57;;;;;;;;;;;;;;;26.52;49.93;99637.53;5320868;26;32659;-82
2023/06/08 11:49:25;;;;;;;;;;;;;;;26.41;49.74;99637.06;5338904;26;33517;-81
2023/06/08 11:51:53;;;;;;;;;;;;;;;26.75;49.48;99620.56;5319677;26;33463;-81
2023/06/08 11:54:21;;;;;;;;;;;;;;;26.76;49.35;99623.06;5302882;26;34174;-81
2023/06/08 11:56:48;;;;;;;;;;;;;;;26.88;49.55;99628.13;5340278;26;34820;-81
2023/06/08 11:59:16;;;;;;;;;;;;;;;26.84;48.81;99624.91;5320953;26;33532;-81
2023/06/08 12:01:53;;;;;;;;;;;;;;;26.85;48.92;99610.34;5321592;26;32928;-81
2023/06/08 12:04:21;;;;;;;;;;;;;;;26.79;49.64;99608.34;5321690;26;34089;-81
2023/06/08 12:06:48;;;;;;;;;;;;;;;26.91;48.74;99600.66;5339660;26;34409;-81
2023/06/08 12:09:16;;;;;;;;;;;;;;;26.76;50.45;99598.69;5303491;26;32506;-82
2023/06/08 12:11:43;;;;;;;;;;;;;;;27.10;49.08;99602.13;5319731;26;32955;-81
2023/06/08 12:14:13;;;;;;;;;;;;;;;27.63;46.50;99595.84;5339895;26;33910;-81
2023/06/08 12:16:43;;;;;;;;;;;;;;;27.48;49.02;99595.75;5321659;26;34247;-81
2023/06/08 12:19:11;;;;;;;;;;;;;;;26.79;49.30;99600.22;5303627;26;32421;-81
2023/06/08 12:21:39;;;;;;;;;;;;;;;27.49;48.69;99589.34;5321292;26;32968;-81
2023/06/08 12:24:07;;;;;;;;;;;;;;;27.34;49.21;99595.69;5339489;26;34673;-81
2023/06/08 12:26:34;;;;;;;;;;;;;;;27.59;48.57;99594.50;5321772;26;33922;-81
2023/06/08 12:29:05;;;;;;;;;;;;;;;26.93;48.70;99585.94;5321515;26;32528;-81
2023/06/08 12:31:33;;;;;;;;;;;;;;;27.13;50.46;99586.34;5320519;26;32681;-81
2023/06/08 12:34:02;;;;;;;;;;;;;;;27.58;48.19;99587.38;5339413;26;35564;-81
2023/06/08 12:36:30;;;;;;;;;;;;;;;27.52;47.95;99586.25;5340774;26;33922;-81
2023/06/08 12:38:58;;;;;;;;;;;;;;;27.29;49.69;99591.66;5303231;26;32788;-81
2023/06/08 12:41:26;;;;;;;;;;;;;;;27.47;49.34;99582.37;5321586;26;33129;-81
2023/06/08 12:43:54;;;;;;;;;;;;;;;27.46;47.89;99581.56;5339431;26;34726;-82
2023/06/08 12:46:22;;;;;;;;;;;;;;;27.49;49.13;99577.66;5337562;26;33901;-81
2023/06/08 12:48:51;;;;;;;;;;;;;;;27.45;49.06;99584.44;5321404;26;33556;-81
2023/06/08 12:51:18;;;;;;;;;;;;;;;27.46;47.50;99586.12;5302974;26;33313;-81
2023/06/08 12:53:46;;;;;;;;;;;;;;;27.41;47.55;99581.25;5321284;26;33149;-81
2023/06/08 12:56:13;;;;;;;;;;;;;;;27.68;46.37;99579.88;5321527;26;33935;-81
2023/06/08 12:58:41;;;;;;;;;;;;;;;27.40;48.38;99581.44;5303158;26;31905;-81